sensor_id;sensor_type;location;lat;lon;timestamp;pressure;altitude;pressure_sealevel;temperature;humidity
13476;BME280;6810;63.824;20.288;2023-07-31T00:00:19;100500.31;;;19.42;82.70
13476;BME280;6810;63.824;20.288;2023-07-31T00:02:46;100494.03;;;19.42;82.60
13476;BME280;6810;63.824;20.288;2023-07-31T00:05:13;100499.28;;;19.43;82.85
13476;BME280;6810;63.824;20.288;2023-07-31T00:07:40;100495.56;;;19.44;82.76
13476;BME280;6810;63.824;20.288;2023-07-31T00:10:08;100500.00;;;19.45;82.67
13476;BME280;6810;63.824;20.288;2023-07-31T00:12:35;100500.69;;;19.47;83.23
13476;BME280;6810;63.824;20.288;2023-07-31T00:15:03;100481.69;;;19.39;83.11
13476;BME280;6810;63.824;20.288;2023-07-31T00:17:30;100499.69;;;19.48;82.82
13476;BME280;6810;63.824;20.288;2023-07-31T00:19:57;100477.25;;;19.38;82.77
13476;BME280;6810;63.824;20.288;2023-07-31T00:22:24;100487.88;;;19.49;82.68
13476;BME280;6810;63.824;20.288;2023-07-31T00:24:51;100495.13;;;19.49;82.93
13476;BME280;6810;63.824;20.288;2023-07-31T00:27:18;100496.13;;;19.48;83.01
13476;BME280;6810;63.824;20.288;2023-07-31T00:29:45;100489.72;;;19.49;82.82
13476;BME280;6810;63.824;20.288;2023-07-31T00:32:13;100476.44;;;19.38;82.73
13476;BME280;6810;63.824;20.288;2023-07-31T00:34:40;100495.13;;;19.49;82.20
13476;BME280;6810;63.824;20.288;2023-07-31T00:37:07;100493.28;;;19.49;82.35
13476;BME280;6810;63.824;20.288;2023-07-31T00:39:34;100487.16;;;19.47;82.53
13476;BME280;6810;63.824;20.288;2023-07-31T00:42:02;100487.16;;;19.47;82.10
13476;BME280;6810;63.824;20.288;2023-07-31T00:44:29;100480.69;;;19.40;82.88
13476;BME280;6810;63.824;20.288;2023-07-31T00:46:57;100492.72;;;19.46;82.55
13476;BME280;6810;63.824;20.288;2023-07-31T00:49:26;100489.50;;;19.42;82.42
13476;BME280;6810;63.824;20.288;2023-07-31T00:51:55;100498.44;;;19.43;82.50
13476;BME280;6810;63.824;20.288;2023-07-31T00:54:25;100498.44;;;19.43;82.19
13476;BME280;6810;63.824;20.288;2023-07-31T00:56:53;100458.13;;;19.22;82.39
13476;BME280;6810;63.824;20.288;2023-07-31T00:59:21;100490.47;;;19.41;82.11
13476;BME280;6810;63.824;20.288;2023-07-31T01:01:48;100495.19;;;19.39;82.80
13476;BME280;6810;63.824;20.288;2023-07-31T01:04:17;100496.91;;;19.40;82.58
13476;BME280;6810;63.824;20.288;2023-07-31T01:06:48;100498.75;;;19.40;82.71
13476;BME280;6810;63.824;20.288;2023-07-31T01:12:06;100502.44;;;19.39;82.52
13476;BME280;6810;63.824;20.288;2023-07-31T01:14:34;100510.56;;;19.39;82.58
13476;BME280;6810;63.824;20.288;2023-07-31T01:17:01;100515.09;;;19.38;82.61
13476;BME280;6810;63.824;20.288;2023-07-31T01:19:28;100510.56;;;19.39;83.39
13476;BME280;6810;63.824;20.288;2023-07-31T01:24:55;100504.28;;;19.38;83.70
13476;BME280;6810;63.824;20.288;2023-07-31T01:27:30;100512.41;;;19.38;83.13
13476;BME280;6810;63.824;20.288;2023-07-31T01:32:29;100510.56;;;19.39;83.78
13476;BME280;6810;63.824;20.288;2023-07-31T01:34:58;100507.72;;;19.40;84.05
13476;BME280;6810;63.824;20.288;2023-07-31T01:37:29;100504.28;;;19.38;83.73
13476;BME280;6810;63.824;20.288;2023-07-31T01:39:59;100496.91;;;19.40;83.80
13476;BME280;6810;63.824;20.288;2023-07-31T01:42:26;100504.84;;;19.42;83.83
13476;BME280;6810;63.824;20.288;2023-07-31T01:44:53;100502.16;;;19.42;84.26
13476;BME280;6810;63.824;20.288;2023-07-31T01:47:20;100515.66;;;19.42;83.65
13476;BME280;6810;63.824;20.288;2023-07-31T01:49:47;100510.25;;;19.42;84.28
13476;BME280;6810;63.824;20.288;2023-07-31T01:52:14;100508.41;;;19.42;84.27
13476;BME280;6810;63.824;20.288;2023-07-31T01:54:41;100509.25;;;19.43;84.33
13476;BME280;6810;63.824;20.288;2023-07-31T01:57:08;100499.59;;;19.40;84.12
13476;BME280;6810;63.824;20.288;2023-07-31T01:59:35;100511.13;;;19.42;84.08
13476;BME280;6810;63.824;20.288;2023-07-31T02:02:02;100510.13;;;19.43;83.37
13476;BME280;6810;63.824;20.288;2023-07-31T02:04:29;100511.94;;;19.43;83.77
13476;BME280;6810;63.824;20.288;2023-07-31T02:06:56;100511.13;;;19.42;83.56
13476;BME280;6810;63.824;20.288;2023-07-31T02:09:23;100510.25;;;19.42;83.87
13476;BME280;6810;63.824;20.288;2023-07-31T02:11:51;100518.38;;;19.42;83.78
13476;BME280;6810;63.824;20.288;2023-07-31T02:14:18;100512.97;;;19.42;83.46
13476;BME280;6810;63.824;20.288;2023-07-31T02:16:46;100498.66;;;19.32;83.37
13476;BME280;6810;63.824;20.288;2023-07-31T02:19:13;100512.25;;;19.40;83.27
13476;BME280;6810;63.824;20.288;2023-07-31T02:21:40;100502.59;;;19.37;82.91
13476;BME280;6810;63.824;20.288;2023-07-31T02:24:07;100510.56;;;19.39;83.30
13476;BME280;6810;63.824;20.288;2023-07-31T02:26:34;100511.72;;;19.36;83.24
13476;BME280;6810;63.824;20.288;2023-07-31T02:29:02;100499.22;;;19.26;83.08
13476;BME280;6810;63.824;20.288;2023-07-31T02:31:29;100514.59;;;19.35;82.99
13476;BME280;6810;63.824;20.288;2023-07-31T02:33:56;100520.97;;;19.34;83.24
13476;BME280;6810;63.824;20.288;2023-07-31T02:36:23;100529.22;;;19.32;83.09
13476;BME280;6810;63.824;20.288;2023-07-31T02:38:50;100531.25;;;19.30;83.16
13476;BME280;6810;63.824;20.288;2023-07-31T02:41:17;100515.56;;;19.24;83.53
13476;BME280;6810;63.824;20.288;2023-07-31T02:43:44;100536.81;;;19.29;83.10
13476;BME280;6810;63.824;20.288;2023-07-31T02:46:11;100533.34;;;19.27;83.28
13476;BME280;6810;63.824;20.288;2023-07-31T02:48:38;100537.06;;;19.26;83.04
13476;BME280;6810;63.824;20.288;2023-07-31T02:51:05;100539.06;;;19.24;83.01
13476;BME280;6810;63.824;20.288;2023-07-31T02:53:32;100523.88;;;19.13;83.22
13476;BME280;6810;63.824;20.288;2023-07-31T02:55:59;100535.09;;;19.18;82.95
13476;BME280;6810;63.824;20.288;2023-07-31T02:58:27;100531.00;;;19.14;83.38
13476;BME280;6810;63.824;20.288;2023-07-31T03:00:54;100538.66;;;19.19;83.26
13476;BME280;6810;63.824;20.288;2023-07-31T03:03:21;100546.91;;;19.17;83.01
13476;BME280;6810;63.824;20.288;2023-07-31T03:05:48;100540.78;;;19.15;83.50
13476;BME280;6810;63.824;20.288;2023-07-31T03:08:15;100547.91;;;19.16;83.13
13476;BME280;6810;63.824;20.288;2023-07-31T03:10:42;100519.81;;;19.00;83.74
13476;BME280;6810;63.824;20.288;2023-07-31T03:13:10;100524.38;;;18.99;83.46
13476;BME280;6810;63.824;20.288;2023-07-31T03:15:37;100548.91;;;19.15;83.81
13476;BME280;6810;63.824;20.288;2023-07-31T03:18:04;100547.91;;;19.16;84.17
13476;BME280;6810;63.824;20.288;2023-07-31T03:20:31;100553.31;;;19.16;83.77
13476;BME280;6810;63.824;20.288;2023-07-31T03:22:58;100548.22;;;19.13;84.02
13476;BME280;6810;63.824;20.288;2023-07-31T03:25:25;100552.47;;;19.16;84.16
13476;BME280;6810;63.824;20.288;2023-07-31T03:27:52;100557.72;;;19.17;84.30
13476;BME280;6810;63.824;20.288;2023-07-31T03:30:20;100557.00;;;19.15;84.28
13476;BME280;6810;63.824;20.288;2023-07-31T03:32:47;100557.72;;;19.17;83.82
13476;BME280;6810;63.824;20.288;2023-07-31T03:35:14;100563.13;;;19.17;84.48
13476;BME280;6810;63.824;20.288;2023-07-31T03:37:42;100554.00;;;19.18;84.69
13476;BME280;6810;63.824;20.288;2023-07-31T03:40:09;100555.00;;;19.17;84.61
13476;BME280;6810;63.824;20.288;2023-07-31T03:42:37;100555.88;;;19.18;84.72
13476;BME280;6810;63.824;20.288;2023-07-31T03:45:04;100555.00;;;19.17;84.51
13476;BME280;6810;63.824;20.288;2023-07-31T03:47:31;100572.09;;;19.18;84.12
13476;BME280;6810;63.824;20.288;2023-07-31T03:49:59;100576.63;;;19.17;84.34
13476;BME280;6810;63.824;20.288;2023-07-31T03:52:26;100574.22;;;19.14;84.55
13476;BME280;6810;63.824;20.288;2023-07-31T03:54:53;100564.72;;;19.10;85.02
13476;BME280;6810;63.824;20.288;2023-07-31T03:57:20;100558.19;;;19.03;84.81
13476;BME280;6810;63.824;20.288;2023-07-31T03:59:47;100572.25;;;19.16;84.80
13476;BME280;6810;63.824;20.288;2023-07-31T04:02:14;100573.94;;;19.17;85.17
13476;BME280;6810;63.824;20.288;2023-07-31T04:04:41;100577.50;;;19.18;85.16
13476;BME280;6810;63.824;20.288;2023-07-31T04:07:09;100574.78;;;19.18;85.39
13476;BME280;6810;63.824;20.288;2023-07-31T04:09:36;100581.03;;;19.18;85.00
13476;BME280;6810;63.824;20.288;2023-07-31T04:12:03;100581.88;;;19.19;84.97
13476;BME280;6810;63.824;20.288;2023-07-31T04:14:31;100574.66;;;19.19;85.08
13476;BME280;6810;63.824;20.288;2023-07-31T04:16:57;100570.50;;;19.15;85.46
13476;BME280;6810;63.824;20.288;2023-07-31T04:19:25;100576.47;;;19.19;85.24
13476;BME280;6810;63.824;20.288;2023-07-31T04:21:52;100580.06;;;19.19;85.88
13476;BME280;6810;63.824;20.288;2023-07-31T04:24:19;100583.59;;;19.20;85.63
13476;BME280;6810;63.824;20.288;2023-07-31T04:26:51;100587.16;;;19.20;86.06
13476;BME280;6810;63.824;20.288;2023-07-31T04:29:19;100589.69;;;19.22;85.79
13476;BME280;6810;63.824;20.288;2023-07-31T04:31:48;100590.56;;;19.22;86.07
13476;BME280;6810;63.824;20.288;2023-07-31T04:34:15;100589.56;;;19.23;86.32
13476;BME280;6810;63.824;20.288;2023-07-31T04:36:42;100583.72;;;19.18;86.62
13476;BME280;6810;63.824;20.288;2023-07-31T04:39:09;100594.66;;;19.26;86.27
13476;BME280;6810;63.824;20.288;2023-07-31T04:41:36;100600.81;;;19.28;86.69
13476;BME280;6810;63.824;20.288;2023-07-31T04:44:04;100598.81;;;19.30;86.92
13476;BME280;6810;63.824;20.288;2023-07-31T04:46:31;100603.38;;;19.30;86.86
13476;BME280;6810;63.824;20.288;2023-07-31T04:48:58;100605.78;;;19.33;86.96
13476;BME280;6810;63.824;20.288;2023-07-31T04:51:25;100605.63;;;19.34;87.41
13476;BME280;6810;63.824;20.288;2023-07-31T04:53:52;100594.97;;;19.33;86.74
13476;BME280;6810;63.824;20.288;2023-07-31T04:56:20;100604.31;;;19.38;87.11
13476;BME280;6810;63.824;20.288;2023-07-31T04:58:47;100599.47;;;19.42;87.19
13476;BME280;6810;63.824;20.288;2023-07-31T05:01:14;100602.91;;;19.44;87.07
13476;BME280;6810;63.824;20.288;2023-07-31T05:03:41;100616.28;;;19.45;87.03
13476;BME280;6810;63.824;20.288;2023-07-31T05:06:08;100605.31;;;19.47;87.40
13476;BME280;6810;63.824;20.288;2023-07-31T05:08:35;100610.56;;;19.48;87.55
13476;BME280;6810;63.824;20.288;2023-07-31T05:11:03;100604.00;;;19.51;87.06
13476;BME280;6810;63.824;20.288;2023-07-31T05:13:30;100593.63;;;19.46;86.96
13476;BME280;6810;63.824;20.288;2023-07-31T05:15:57;100602.69;;;19.55;87.30
13476;BME280;6810;63.824;20.288;2023-07-31T05:18:27;100607.81;;;19.58;86.95
13476;BME280;6810;63.824;20.288;2023-07-31T05:20:55;100611.34;;;19.58;87.24
13476;BME280;6810;63.824;20.288;2023-07-31T05:23:22;100620.03;;;19.62;87.08
13476;BME280;6810;63.824;20.288;2023-07-31T05:25:49;100590.03;;;19.55;86.85
13476;BME280;6810;63.824;20.288;2023-07-31T05:28:16;100615.19;;;19.65;86.87
13476;BME280;6810;63.824;20.288;2023-07-31T05:30:43;100606.94;;;19.67;87.03
13476;BME280;6810;63.824;20.288;2023-07-31T05:33:10;100602.91;;;19.71;86.72
13476;BME280;6810;63.824;20.288;2023-07-31T05:35:40;100610.72;;;19.74;86.87
13476;BME280;6810;63.824;20.288;2023-07-31T05:38:07;100598.88;;;19.75;86.30
13476;BME280;6810;63.824;20.288;2023-07-31T05:40:34;100601.28;;;19.78;86.59
13476;BME280;6810;63.824;20.288;2023-07-31T05:43:02;100604.56;;;19.81;86.92
13476;BME280;6810;63.824;20.288;2023-07-31T05:45:29;100609.50;;;19.86;86.46
13476;BME280;6810;63.824;20.288;2023-07-31T05:47:56;100606.66;;;19.87;86.72
13476;BME280;6810;63.824;20.288;2023-07-31T05:50:23;100587.75;;;19.78;86.28
13476;BME280;6810;63.824;20.288;2023-07-31T05:52:50;100608.44;;;19.96;86.21
13476;BME280;6810;63.824;20.288;2023-07-31T05:55:18;100604.59;;;19.99;85.59
13476;BME280;6810;63.824;20.288;2023-07-31T05:57:45;100611.25;;;20.04;85.30
13476;BME280;6810;63.824;20.288;2023-07-31T06:00:13;100602.97;;;20.06;85.37
13476;BME280;6810;63.824;20.288;2023-07-31T06:02:41;100606.09;;;20.11;84.58
13476;BME280;6810;63.824;20.288;2023-07-31T06:05:08;100604.38;;;20.10;84.51
13476;BME280;6810;63.824;20.288;2023-07-31T06:07:35;100612.78;;;20.16;84.24
13476;BME280;6810;63.824;20.288;2023-07-31T06:10:03;100608.06;;;20.18;84.22
13476;BME280;6810;63.824;20.288;2023-07-31T06:12:33;100604.19;;;20.21;84.35
13476;BME280;6810;63.824;20.288;2023-07-31T06:15:01;100602.03;;;20.24;84.05
13476;BME280;6810;63.824;20.288;2023-07-31T06:17:29;100589.66;;;20.22;83.81
13476;BME280;6810;63.824;20.288;2023-07-31T06:19:56;100601.56;;;20.29;83.16
13476;BME280;6810;63.824;20.288;2023-07-31T06:22:23;100605.00;;;20.31;82.88
13476;BME280;6810;63.824;20.288;2023-07-31T06:24:51;100596.72;;;20.32;82.61
13476;BME280;6810;63.824;20.288;2023-07-31T06:27:18;100600.94;;;20.35;82.60
13476;BME280;6810;63.824;20.288;2023-07-31T06:29:45;100605.03;;;20.39;82.28
13476;BME280;6810;63.824;20.288;2023-07-31T06:32:12;100605.59;;;20.42;82.19
13476;BME280;6810;63.824;20.288;2023-07-31T06:34:39;100599.88;;;20.45;81.94
13476;BME280;6810;63.824;20.288;2023-07-31T06:37:06;100588.88;;;20.47;81.47
13476;BME280;6810;63.824;20.288;2023-07-31T06:39:33;100602.66;;;20.53;80.91
13476;BME280;6810;63.824;20.288;2023-07-31T06:42:00;100591.97;;;20.52;80.57
13476;BME280;6810;63.824;20.288;2023-07-31T06:44:27;100606.34;;;20.52;80.14
13476;BME280;6810;63.824;20.288;2023-07-31T06:46:54;100587.81;;;20.40;80.25
13476;BME280;6810;63.824;20.288;2023-07-31T06:49:22;100602.09;;;20.50;80.25
13476;BME280;6810;63.824;20.288;2023-07-31T06:51:49;100590.88;;;20.45;79.82
13476;BME280;6810;63.824;20.288;2023-07-31T06:54:16;100598.38;;;20.51;79.73
13476;BME280;6810;63.824;20.288;2023-07-31T06:56:43;100600.94;;;20.52;79.66
13476;BME280;6810;63.824;20.288;2023-07-31T06:59:10;100607.06;;;20.54;79.46
13476;BME280;6810;63.824;20.288;2023-07-31T07:01:37;100602.03;;;20.59;79.79
13476;BME280;6810;63.824;20.288;2023-07-31T07:04:05;100600.84;;;20.62;79.86
13476;BME280;6810;63.824;20.288;2023-07-31T07:06:32;100604.81;;;20.68;79.57
13476;BME280;6810;63.824;20.288;2023-07-31T07:08:59;100613.31;;;20.73;78.64
13476;BME280;6810;63.824;20.288;2023-07-31T07:11:26;100570.47;;;20.50;78.12
13476;BME280;6810;63.824;20.288;2023-07-31T07:13:53;100618.09;;;20.79;77.61
13476;BME280;6810;63.824;20.288;2023-07-31T07:16:20;100609.59;;;20.74;77.77
13476;BME280;6810;63.824;20.288;2023-07-31T07:18:47;100629.78;;;20.79;77.09
13476;BME280;6810;63.824;20.288;2023-07-31T07:21:30;100636.91;;;20.80;77.00
13476;BME280;6810;63.824;20.288;2023-07-31T07:23:57;100638.78;;;20.80;76.71
13476;BME280;6810;63.824;20.288;2023-07-31T07:26:24;100642.16;;;20.82;76.80
13476;BME280;6810;63.824;20.288;2023-07-31T07:28:51;100633.06;;;20.83;76.85
13476;BME280;6810;63.824;20.288;2023-07-31T07:31:18;100638.16;;;20.86;76.59
13476;BME280;6810;63.824;20.288;2023-07-31T07:33:45;100633.44;;;20.88;76.21
13476;BME280;6810;63.824;20.288;2023-07-31T07:36:12;100642.25;;;20.90;76.06
13476;BME280;6810;63.824;20.288;2023-07-31T07:38:40;100639.22;;;20.93;76.00
13476;BME280;6810;63.824;20.288;2023-07-31T07:41:08;100641.50;;;20.97;76.20
13476;BME280;6810;63.824;20.288;2023-07-31T07:43:35;100644.91;;;20.99;75.65
13476;BME280;6810;63.824;20.288;2023-07-31T07:46:02;100644.59;;;21.02;75.21
13476;BME280;6810;63.824;20.288;2023-07-31T07:48:29;100648.00;;;21.04;74.67
13476;BME280;6810;63.824;20.288;2023-07-31T07:50:56;100646.97;;;21.05;73.93
13476;BME280;6810;63.824;20.288;2023-07-31T07:53:23;100637.47;;;21.01;73.17
13476;BME280;6810;63.824;20.288;2023-07-31T07:55:50;100626.47;;;21.03;73.42
13476;BME280;6810;63.824;20.288;2023-07-31T07:58:17;100646.19;;;21.13;74.02
13476;BME280;6810;63.824;20.288;2023-07-31T08:00:50;100648.25;;;21.19;74.02
13476;BME280;6810;63.824;20.288;2023-07-31T08:03:17;100643.38;;;21.22;73.05
13476;BME280;6810;63.824;20.288;2023-07-31T08:05:44;100652.38;;;21.23;72.91
13476;BME280;6810;63.824;20.288;2023-07-31T08:08:14;100643.88;;;21.18;72.44
13476;BME280;6810;63.824;20.288;2023-07-31T08:10:43;100647.94;;;21.22;71.92
13476;BME280;6810;63.824;20.288;2023-07-31T08:13:11;100641.47;;;21.15;71.83
13476;BME280;6810;63.824;20.288;2023-07-31T08:15:41;100622.34;;;20.99;72.25
13476;BME280;6810;63.824;20.288;2023-07-31T08:18:09;100650.00;;;21.20;71.86
13476;BME280;6810;63.824;20.288;2023-07-31T08:20:38;100646.25;;;21.21;71.81
13476;BME280;6810;63.824;20.288;2023-07-31T08:23:05;100649.81;;;21.21;72.25
13476;BME280;6810;63.824;20.288;2023-07-31T08:25:35;100653.53;;;21.20;72.54
13476;BME280;6810;63.824;20.288;2023-07-31T08:28:03;100654.22;;;21.22;72.52
13476;BME280;6810;63.824;20.288;2023-07-31T08:30:31;100651.34;;;21.24;72.52
13476;BME280;6810;63.824;20.288;2023-07-31T08:32:58;100654.94;;;21.24;72.65
13476;BME280;6810;63.824;20.288;2023-07-31T08:35:26;100646.63;;;21.26;72.60
13476;BME280;6810;63.824;20.288;2023-07-31T08:37:55;100646.47;;;21.27;72.77
13476;BME280;6810;63.824;20.288;2023-07-31T08:40:21;100653.44;;;21.30;71.92
13476;BME280;6810;63.824;20.288;2023-07-31T08:42:51;100641.56;;;21.31;71.92
13476;BME280;6810;63.824;20.288;2023-07-31T08:45:19;100646.66;;;21.34;72.04
13476;BME280;6810;63.824;20.288;2023-07-31T08:47:51;100644.66;;;21.36;72.05
13476;BME280;6810;63.824;20.288;2023-07-31T08:50:20;100648.06;;;21.38;71.23
13476;BME280;6810;63.824;20.288;2023-07-31T08:52:48;100641.78;;;21.37;70.71
13476;BME280;6810;63.824;20.288;2023-07-31T08:55:16;100645.19;;;21.39;70.26
13476;BME280;6810;63.824;20.288;2023-07-31T08:57:43;100611.72;;;21.23;69.84
13476;BME280;6810;63.824;20.288;2023-07-31T09:00:11;100629.56;;;21.33;69.28
13476;BME280;6810;63.824;20.288;2023-07-31T09:02:59;100643.69;;;21.45;69.98
13476;BME280;6810;63.824;20.288;2023-07-31T09:05:30;100643.03;;;21.51;69.53
13476;BME280;6810;63.824;20.288;2023-07-31T09:07:58;100602.28;;;21.35;69.84
13476;BME280;6810;63.824;20.288;2023-07-31T09:10:25;100647.34;;;21.61;69.77
13476;BME280;6810;63.824;20.288;2023-07-31T09:12:52;100642.28;;;21.66;68.33
13476;BME280;6810;63.824;20.288;2023-07-31T09:15:20;100631.28;;;21.68;68.13
13476;BME280;6810;63.824;20.288;2023-07-31T09:18:04;100638.94;;;21.72;68.65
13476;BME280;6810;63.824;20.288;2023-07-31T09:20:32;100633.19;;;21.75;67.01
13476;BME280;6810;63.824;20.288;2023-07-31T09:23:11;100634.56;;;21.79;67.31
13476;BME280;6810;63.824;20.288;2023-07-31T09:25:40;100634.41;;;21.81;67.15
13476;BME280;6810;63.824;20.288;2023-07-31T09:28:08;100582.91;;;21.63;66.51
13476;BME280;6810;63.824;20.288;2023-07-31T09:30:51;100638.22;;;21.96;66.12
13476;BME280;6810;63.824;20.288;2023-07-31T09:33:19;100633.81;;;22.03;64.64
13476;BME280;6810;63.824;20.288;2023-07-31T09:35:47;100630.44;;;22.09;64.16
13476;BME280;6810;63.824;20.288;2023-07-31T09:38:16;100584.59;;;21.90;63.83
13476;BME280;6810;63.824;20.288;2023-07-31T09:40:45;100636.94;;;22.24;64.27
13476;BME280;6810;63.824;20.288;2023-07-31T09:43:17;100640.72;;;22.31;63.35
13476;BME280;6810;63.824;20.288;2023-07-31T09:45:45;100620.84;;;22.31;62.38
13476;BME280;6810;63.824;20.288;2023-07-31T09:48:17;100643.28;;;22.49;61.99
13476;BME280;6810;63.824;20.288;2023-07-31T09:50:46;100621.22;;;22.52;61.75
13476;BME280;6810;63.824;20.288;2023-07-31T09:53:15;100640.28;;;22.76;61.82
13476;BME280;6810;63.824;20.288;2023-07-31T09:55:43;100646.41;;;22.86;61.75
13476;BME280;6810;63.824;20.288;2023-07-31T09:58:12;100640.13;;;22.93;61.56
13476;BME280;6810;63.824;20.288;2023-07-31T10:00:39;100643.03;;;23.00;61.19
13476;BME280;6810;63.824;20.288;2023-07-31T10:03:08;100635.53;;;23.02;60.10
13476;BME280;6810;63.824;20.288;2023-07-31T10:05:46;100628.38;;;23.09;61.11
13476;BME280;6810;63.824;20.288;2023-07-31T10:08:18;100628.03;;;23.20;60.18
13476;BME280;6810;63.824;20.288;2023-07-31T10:10:46;100622.25;;;23.39;59.70
13476;BME280;6810;63.824;20.288;2023-07-31T10:13:14;100622.34;;;23.61;59.42
13476;BME280;6810;63.824;20.288;2023-07-31T10:15:41;100608.84;;;23.84;59.10
13476;BME280;6810;63.824;20.288;2023-07-31T10:18:11;100610.59;;;24.08;59.10
13476;BME280;6810;63.824;20.288;2023-07-31T10:20:40;100598.78;;;24.23;58.31
13476;BME280;6810;63.824;20.288;2023-07-31T10:23:07;100610.22;;;24.41;57.80
13476;BME280;6810;63.824;20.288;2023-07-31T10:25:35;100610.13;;;24.57;56.47
13476;BME280;6810;63.824;20.288;2023-07-31T10:28:02;100619.59;;;24.69;55.44
13476;BME280;6810;63.824;20.288;2023-07-31T10:30:32;100609.00;;;24.74;55.36
13476;BME280;6810;63.824;20.288;2023-07-31T10:33:02;100596.19;;;24.75;54.62
13476;BME280;6810;63.824;20.288;2023-07-31T10:35:30;100617.84;;;24.76;55.34
13476;BME280;6810;63.824;20.288;2023-07-31T10:38:09;100607.13;;;24.75;55.39
13476;BME280;6810;63.824;20.288;2023-07-31T10:40:38;100586.25;;;24.59;53.91
13476;BME280;6810;63.824;20.288;2023-07-31T10:43:05;100610.34;;;24.78;53.14
13476;BME280;6810;63.824;20.288;2023-07-31T10:45:42;100595.84;;;24.78;52.84
13476;BME280;6810;63.824;20.288;2023-07-31T10:48:13;100600.69;;;24.90;53.20
13476;BME280;6810;63.824;20.288;2023-07-31T10:50:52;100592.25;;;25.00;52.41
13476;BME280;6810;63.824;20.288;2023-07-31T10:56:09;100591.88;;;25.03;53.10
13476;BME280;6810;63.824;20.288;2023-07-31T10:58:38;100596.72;;;24.93;53.17
13476;BME280;6810;63.824;20.288;2023-07-31T11:01:06;100602.91;;;24.87;53.91
13476;BME280;6810;63.824;20.288;2023-07-31T11:03:50;100590.19;;;24.79;54.15
13476;BME280;6810;63.824;20.288;2023-07-31T11:06:19;100598.94;;;24.75;53.17
13476;BME280;6810;63.824;20.288;2023-07-31T11:08:50;100579.41;;;24.63;53.98
13476;BME280;6810;63.824;20.288;2023-07-31T11:11:19;100589.28;;;24.64;52.22
13476;BME280;6810;63.824;20.288;2023-07-31T11:13:48;100593.59;;;24.59;52.00
13476;BME280;6810;63.824;20.288;2023-07-31T11:16:23;100582.19;;;24.55;52.07
13476;BME280;6810;63.824;20.288;2023-07-31T11:18:52;100584.38;;;24.60;51.63
13476;BME280;6810;63.824;20.288;2023-07-31T11:21:22;100586.41;;;24.66;50.87
13476;BME280;6810;63.824;20.288;2023-07-31T11:23:52;100583.31;;;24.69;51.84
13476;BME280;6810;63.824;20.288;2023-07-31T11:26:19;100583.44;;;24.75;51.68
13476;BME280;6810;63.824;20.288;2023-07-31T11:28:47;100586.91;;;24.84;51.19
13476;BME280;6810;63.824;20.288;2023-07-31T11:31:15;100579.53;;;24.92;50.51
13476;BME280;6810;63.824;20.288;2023-07-31T11:33:43;100572.28;;;24.99;50.40
13476;BME280;6810;63.824;20.288;2023-07-31T11:36:18;100575.31;;;25.04;50.16
13476;BME280;6810;63.824;20.288;2023-07-31T11:38:45;100566.56;;;25.09;49.65
13476;BME280;6810;63.824;20.288;2023-07-31T11:41:14;100575.50;;;25.17;49.96
13476;BME280;6810;63.824;20.288;2023-07-31T11:43:43;100570.06;;;25.17;50.38
13476;BME280;6810;63.824;20.288;2023-07-31T11:46:10;100555.19;;;25.20;50.08
13476;BME280;6810;63.824;20.288;2023-07-31T11:48:37;100584.78;;;25.45;49.75
13476;BME280;6810;63.824;20.288;2023-07-31T11:51:07;100588.06;;;25.56;50.05
13476;BME280;6810;63.824;20.288;2023-07-31T11:53:43;100576.41;;;25.62;49.55
13476;BME280;6810;63.824;20.288;2023-07-31T11:56:13;100548.34;;;25.53;49.37
13476;BME280;6810;63.824;20.288;2023-07-31T11:58:42;100530.66;;;25.49;48.67
13476;BME280;6810;63.824;20.288;2023-07-31T12:01:14;100579.78;;;25.78;48.77
13476;BME280;6810;63.824;20.288;2023-07-31T12:03:44;100572.72;;;25.84;50.05
13476;BME280;6810;63.824;20.288;2023-07-31T12:06:12;100586.31;;;25.98;49.73
13476;BME280;6810;63.824;20.288;2023-07-31T12:08:39;100582.88;;;26.04;50.07
13476;BME280;6810;63.824;20.288;2023-07-31T12:11:08;100577.88;;;26.08;50.32
13476;BME280;6810;63.824;20.288;2023-07-31T12:13:38;100581.72;;;26.13;50.43
13476;BME280;6810;63.824;20.288;2023-07-31T12:16:06;100570.34;;;26.10;50.74
13476;BME280;6810;63.824;20.288;2023-07-31T12:18:35;100573.78;;;26.18;50.83
13476;BME280;6810;63.824;20.288;2023-07-31T12:21:05;100574.06;;;26.23;50.57
13476;BME280;6810;63.824;20.288;2023-07-31T12:23:34;100571.22;;;26.31;50.95
13476;BME280;6810;63.824;20.288;2023-07-31T12:28:42;100578.72;;;26.44;50.67
13476;BME280;6810;63.824;20.288;2023-07-31T12:31:15;100579.53;;;26.44;50.42
13476;BME280;6810;63.824;20.288;2023-07-31T12:33:45;100578.91;;;26.42;50.27
13476;BME280;6810;63.824;20.288;2023-07-31T12:36:18;100582.47;;;26.43;50.11
13476;BME280;6810;63.824;20.288;2023-07-31T12:38:45;100572.66;;;26.48;49.97
13476;BME280;6810;63.824;20.288;2023-07-31T12:41:13;100571.22;;;26.52;49.87
13476;BME280;6810;63.824;20.288;2023-07-31T12:43:41;100560.38;;;26.44;49.74
13476;BME280;6810;63.824;20.288;2023-07-31T12:46:09;100575.91;;;26.58;49.40
13476;BME280;6810;63.824;20.288;2023-07-31T12:48:39;100579.69;;;26.57;49.33
13476;BME280;6810;63.824;20.288;2023-07-31T12:51:07;100576.94;;;26.57;48.92
13476;BME280;6810;63.824;20.288;2023-07-31T12:53:35;100575.03;;;26.58;48.10
13476;BME280;6810;63.824;20.288;2023-07-31T12:56:02;100568.22;;;26.47;48.35
13476;BME280;6810;63.824;20.288;2023-07-31T12:58:29;100565.28;;;26.49;48.58
13476;BME280;6810;63.824;20.288;2023-07-31T13:00:57;100568.22;;;26.47;48.40
13476;BME280;6810;63.824;20.288;2023-07-31T13:03:24;100566.13;;;26.49;48.52
13476;BME280;6810;63.824;20.288;2023-07-31T13:05:52;100568.22;;;26.47;48.29
13476;BME280;6810;63.824;20.288;2023-07-31T13:08:20;100565.66;;;26.46;48.14